Appleton, Washington
Current Conditions -  °F | °C
As of 2:53 AM on Monday 20 Oct 2014 (Local Time) from KDLS Reporting Station
Few Clouds Few Clouds  
Wind Chill: 57°   Ceiling: Unl
Heat Index: 57°   Visibility: 10mi
Dew Point: 53°   Wind: 3mph
Humidity: 87%   Direction: 80°E
Pressure: 29.71"   Gusts: NA
Location:  45.81°N, 121.27°W
Report Text: KDLS 200953Z AUTO 08003KT 10SM FEW090 14/12 A2971 RMK AO2 SLP061 T01390117
Loading
Personal Weather Stations






























Interactive Weather Map
Tropical Storm Tracking
New forecast layout! Learn more

10-Day Weather Forecast

Advertisements
Track Severe Weather on mobile